Time;durP1;ratioP1;P1;durP2;ratioP2;P2;SDS_P1;SDS_P2;PMS_P1;PMS_P2;Temp;Humidity;BMP_temperature;BMP_pressure;BME280_temperature;BME280_humidity;BME280_pressure;Samples;Min_cycle;Max_cycle;Signal;HPM_P1;HPM_P2
2021/05/26 00:01:54;;;;;;;1999.90;999.90;;;;;;;11.39;66.25;100825.84;15867648;28;20063;-63
2021/05/26 00:09:26;;;;;;;1999.90;999.90;;;;;;;11.40;66.12;100821.91;15865907;28;20422;-62
2021/05/26 00:16:59;;;;;;;1999.90;999.90;;;;;;;11.29;66.70;100826.22;15866433;28;20127;-62
2021/05/26 00:24:31;;;;;;;1999.90;999.90;;;;;;;11.38;66.79;100815.84;15873417;22;20037;-64
2021/05/26 00:32:04;;;;;;;1999.90;999.90;;;;;;;11.29;66.59;100798.28;15790832;28;20066;-65
2021/05/26 00:39:36;;;;;;;1999.90;999.90;;;;;;;11.57;65.99;100791.09;15809716;28;20448;-65
2021/05/26 00:47:11;;;;;;;1999.90;999.90;;;;;;;11.48;65.62;100790.31;15807575;28;20067;-64
2021/05/26 00:54:43;;;;;;;1999.90;999.90;;;;;;;11.41;66.25;100798.38;15789609;28;20044;-65
2021/05/26 01:02:15;;;;;;;1999.90;999.90;;;;;;;11.54;66.30;100788.94;15789298;28;20128;-65
2021/05/26 01:09:48;;;;;;;1999.90;999.90;;;;;;;11.43;66.53;100787.69;15771579;28;20047;-65
2021/05/26 01:17:34;;;;;;;1999.90;999.90;;;;;;;11.46;66.73;100795.41;15806874;28;20048;-65
2021/05/26 01:25:08;;;;;;;1999.90;999.90;;;;;;;11.43;66.89;100784.09;15802672;28;20056;-65
2021/05/26 01:32:42;;;;;;;1999.90;999.90;;;;;;;11.36;67.10;100786.56;15786644;28;20055;-65
2021/05/26 01:40:18;;;;;;;1999.90;999.90;;;;;;;11.57;67.10;100779.91;15786199;28;20121;-66
2021/05/26 01:47:50;;;;;;;1999.90;999.90;;;;;;;11.67;66.73;100772.25;15803872;28;20055;-66
2021/05/26 01:55:23;;;;;;;1999.90;999.90;;;;;;;11.51;67.80;100774.84;15804468;28;20117;-65
2021/05/26 02:02:55;;;;;;;1999.90;999.90;;;;;;;11.32;68.29;100772.47;15785556;28;20063;-65
2021/05/26 02:18:20;;;;;;;1999.90;999.90;;;;;;;11.69;67.58;100773.56;15802890;28;20062;-66
2021/05/26 02:25:53;;;;;;;1999.90;999.90;;;;;;;11.66;67.73;100759.44;15767404;28;20083;-66
2021/05/26 02:33:24;;;;;;;1999.90;999.90;;;;;;;11.70;67.91;100760.41;15801939;28;20048;-65
2021/05/26 02:40:57;;;;;;;1999.90;999.90;;;;;;;11.61;68.15;100765.25;15783609;28;20478;-65
2021/05/26 02:48:28;;;;;;;1999.90;999.90;;;;;;;11.65;68.33;100766.19;15782393;28;20044;-65
2021/05/26 02:56:01;;;;;;;1999.90;999.90;;;;;;;11.55;68.80;100775.78;15782713;28;20484;-65
2021/05/26 03:03:42;;;;;;;1999.90;999.90;;;;;;;11.78;68.09;100765.94;15800895;28;20130;-66
2021/05/26 03:11:27;;;;;;;1999.90;999.90;;;;;;;11.80;68.04;100757.25;15800373;28;20089;-66
2021/05/26 03:19:22;;;;;;;1999.90;999.90;;;;;;;11.75;68.20;100776.97;15788841;28;20056;-65
2021/05/26 03:27:00;;;;;;;1999.90;999.90;;;;;;;11.97;67.79;100768.28;15764201;28;20137;-66
2021/05/26 03:34:31;;;;;;;1999.90;999.90;;;;;;;11.92;68.02;100762.09;15799956;28;20123;-65
2021/05/26 03:42:06;;;;;;;1999.90;999.90;;;;;;;12.07;67.23;100759.47;15764657;28;20048;-66
2021/05/26 03:49:38;;;;;;;1999.90;999.90;;;;;;;12.07;67.21;100751.09;15779807;28;20306;-65
2021/05/26 03:57:14;;;;;;;1999.90;999.90;;;;;;;12.18;67.31;100762.69;15779193;28;20036;-66
2021/05/26 04:04:50;;;;;;;1999.90;999.90;;;;;;;12.18;67.54;100764.66;15778703;28;20090;-65
2021/05/26 04:12:28;;;;;;;1999.90;999.90;;;;;;;11.93;68.16;100761.75;15778960;28;20051;-66
2021/05/26 04:20:10;;;;;;;1999.90;999.90;;;;;;;12.33;68.05;100767.66;15779176;28;20435;-65
2021/05/26 04:27:43;;;;;;;1999.90;999.90;;;;;;;12.69;66.52;100752.13;15796278;28;20101;-66
2021/05/26 04:35:15;;;;;;;;;;;;;;;12.62;66.93;100743.50;15778374;28;20416;-66
2021/05/26 04:42:48;;;;;;;1999.90;999.90;;;;;;;12.30;67.28;100747.94;15795311;28;19920;-66
2021/05/26 04:50:20;;;;;;;1999.90;999.90;;;;;;;12.51;66.76;100743.13;15795503;28;20226;-65
2021/05/26 04:57:59;;;;;;;1999.90;999.90;;;;;;;13.08;66.01;100735.84;15776642;28;20044;-66
2021/05/26 05:05:32;;;;;;;1999.90;999.90;;;;;;;12.85;65.70;100746.69;15795693;28;20134;-66
2021/05/26 05:13:05;;;;;;;1999.90;999.90;;;;;;;12.84;65.66;100743.06;15785388;28;20040;-66
2021/05/26 05:20:37;;;;;;;1999.90;999.90;;;;;;;13.11;64.47;100749.97;15805100;28;20358;-66
2021/05/26 05:28:11;;;;;;;1999.90;999.90;;;;;;;12.95;65.14;100741.44;15803949;28;20040;-66
2021/05/26 05:35:42;;;;;;;1999.90;999.90;;;;;;;13.38;63.91;100745.69;15786797;28;20068;-65
2021/05/26 05:43:15;;;;;;;1999.90;999.90;;;;;;;13.88;61.15;100724.00;15804685;28;20051;-65
2021/05/26 05:50:46;;;;;;;1999.90;999.90;;;;;;;14.30;62.03;100742.06;15785209;28;20058;-65
2021/05/26 05:58:25;;;;;;;1999.90;999.90;;;;;;;14.88;59.32;100736.03;15785966;28;20058;-65
2021/05/26 06:05:57;;;;;;;1999.90;999.90;;;;;;;14.55;59.54;100737.19;15801489;28;20461;-65
2021/05/26 06:13:30;;;;;;;1999.90;999.90;;;;;;;14.60;58.98;100730.50;15766590;28;20302;-65
2021/05/26 06:21:03;;;;;;;1999.90;999.90;;;;;;;15.09;57.23;100730.16;15782031;28;20044;-64
2021/05/26 06:28:36;;;;;;;1999.90;999.90;;;;;;;16.38;53.77;100734.72;17044986;22;20507;-69
2021/05/26 06:36:08;;;;;;;1999.90;999.90;;;;;;;15.72;55.51;100719.63;15866344;28;20515;-70
2021/05/26 06:43:40;;;;;;;1999.90;999.90;;;;;;;17.79;50.85;100738.38;15865666;28;20423;-70
2021/05/26 06:51:12;;;;;;;1999.90;999.90;;;;;;;17.60;50.79;100733.63;15866294;28;20151;-68
2021/05/26 06:58:45;;;;;;;1999.90;999.90;;;;;;;17.43;50.66;100724.91;15869688;28;20418;-69
2021/05/26 07:06:16;;;;;;;1999.90;999.90;;;;;;;16.73;49.36;100721.31;15865487;28;20044;-70
2021/05/26 07:13:49;;;;;;;1999.90;999.90;;;;;;;16.55;51.83;100733.41;15847196;28;20036;-69
2021/05/26 07:21:20;;;;;;;1999.90;999.90;;;;;;;16.25;51.33;100724.75;15864213;28;20097;-69
2021/05/26 07:28:53;;;;;;;1999.90;999.90;;;;;;;16.79;49.00;100721.84;15843969;28;20055;-69
2021/05/26 07:36:24;;;;;;;1999.90;999.90;;;;;;;18.13;47.66;100725.13;15862524;28;20167;-69
2021/05/26 07:43:59;;;;;;;1999.90;999.90;;;;;;;18.43;46.02;100722.22;15863254;28;20047;-69
2021/05/26 07:51:31;;;;;;;1999.90;999.90;;;;;;;17.41;48.65;100718.84;15861622;28;20093;-70
2021/05/26 07:59:04;;;;;;;1999.90;999.90;;;;;;;17.39;47.53;100712.75;15862282;28;20035;-69
2021/05/26 08:06:39;;;;;;;1999.90;999.90;;;;;;;17.12;49.24;100709.91;15860680;28;20476;-69
2021/05/26 08:14:11;;;;;;;1999.90;999.90;;;;;;;17.13;49.19;100702.28;15862766;28;20039;-69
2021/05/26 08:21:43;;;;;;;1999.90;999.90;;;;;;;16.86;51.47;100707.84;15860805;28;20108;-70
2021/05/26 08:29:16;;;;;;;1999.90;999.90;;;;;;;16.77;49.54;100701.66;15859831;28;20036;-69
2021/05/26 08:36:47;;;;;;;1999.90;999.90;;;;;;;16.52;49.54;100714.44;15860974;28;20492;-70
2021/05/26 08:44:22;;;;;;;1999.90;999.90;;;;;;;17.87;48.34;100692.13;15864281;28;20031;-70
2021/05/26 08:51:54;;;;;;;1999.90;999.90;;;;;;;19.32;44.28;100694.03;15872768;28;20118;-70
2021/05/26 08:59:26;;;;;;;1999.90;999.90;;;;;;;20.71;42.56;100680.50;15871843;28;20594;-70
2021/05/26 09:07:09;;;;;;;1999.90;999.90;;;;;;;21.19;38.54;100672.41;15872828;28;20119;-69
2021/05/26 09:14:42;;;;;;;;;;;;;;;17.79;45.74;100662.16;15872339;28;20043;-69
2021/05/26 09:22:14;;;;;;;1999.90;999.90;;;;;;;16.82;49.12;100653.44;15872619;28;20011;-70
2021/05/26 09:29:47;;;;;;;1999.90;999.90;;;;;;;17.02;48.80;100657.00;15871483;28;20511;-70
2021/05/26 09:37:26;;;;;;;1999.90;999.90;;;;;;;16.97;48.45;100648.84;15871291;28;20043;-72
2021/05/26 09:45:10;;;;;;;1999.90;999.90;;;;;;;17.72;46.78;100656.44;15872331;28;20039;-70
2021/05/26 09:53:00;;;;;;;1999.90;999.90;;;;;;;17.60;47.35;100653.81;15870204;28;20039;-70
2021/05/26 10:00:34;;;;;;;1999.90;999.90;;;;;;;16.88;48.43;100656.75;15873508;28;20487;-70
2021/05/26 10:08:07;;;;;;;;;;;;;;;15.44;58.75;100660.72;15869637;28;20058;-70
2021/05/26 10:15:42;;;;;;;1999.90;999.90;;;;;;;16.54;56.14;100625.56;15868327;27;19957;-70
2021/05/26 10:23:17;;;;;;;1999.90;999.90;;;;;;;16.66;55.79;100621.72;15868212;28;20110;-70
2021/05/26 10:30:49;;;;;;;1999.90;999.90;;;;;;;18.94;50.62;100633.94;15867341;27;20496;-71
2021/05/26 10:38:25;;;;;;;1999.90;999.90;;;;;;;17.02;52.13;100623.97;15867847;28;20475;-70
2021/05/26 10:46:00;;;;;;;1999.90;999.90;;;;;;;17.32;52.25;100614.75;15867829;28;20101;-71
2021/05/26 10:53:37;;;;;;;1999.90;999.90;;;;;;;19.11;47.10;100621.13;15867190;28;20047;-70
2021/05/26 11:01:13;;;;;;;1999.90;999.90;;;;;;;18.45;44.36;100606.03;15866460;28;20349;-70
2021/05/26 11:08:47;;;;;;;1999.90;999.90;;;;;;;21.46;42.39;100598.19;15873199;27;20102;-69
2021/05/26 11:16:19;;;;;;;1999.90;999.90;;;;;;;21.75;39.89;100605.38;15863274;28;20043;-69
2021/05/26 11:23:52;;;;;;;1999.90;999.90;;;;;;;21.36;41.03;100593.34;15865168;28;20111;-69
2021/05/26 11:31:24;;;;;;;;;;;;;;;21.46;38.54;100601.03;15864629;28;20081;-70
2021/05/26 11:39:15;;;;;;;1999.90;999.90;;;;;;;21.11;40.33;100584.88;15863298;28;19924;-70
2021/05/26 11:46:47;;;;;;;1999.90;999.90;;;;;;;21.15;38.46;100580.81;15861408;28;20396;-68
2021/05/26 11:54:20;;;;;;;1999.90;999.90;;;;;;;22.51;36.61;100580.19;15862664;28;20101;-69
2021/05/26 12:01:57;;;;;;;1999.90;999.90;;;;;;;20.72;39.80;100572.34;15862910;28;20107;-68
2021/05/26 12:09:29;;;;;;;1999.90;999.90;;;;;;;19.66;41.92;100575.78;15860794;28;20039;-69
2021/05/26 12:17:04;;;;;;;1999.90;999.90;;;;;;;21.57;39.07;100568.56;15880646;22;20135;-63
2021/05/26 12:24:55;;;;;;;1999.90;999.90;;;;;;;20.17;40.88;100560.56;15843755;28;20496;-64
2021/05/26 12:32:28;;;;;;;1999.90;999.90;;;;;;;21.49;39.86;100544.25;15878126;28;20044;-63
2021/05/26 12:39:59;;;;;;;1999.90;999.90;;;;;;;23.83;35.80;100551.19;15877849;28;20035;-63
2021/05/26 12:47:32;;;;;;;1999.90;999.90;;;;;;;20.97;40.63;100552.50;15858662;28;20530;-62
2021/05/26 12:55:08;;;;;;;1999.90;999.90;;;;;;;22.83;35.64;100532.41;15858578;28;20168;-62
2021/05/26 13:02:42;;;;;;;1999.90;999.90;;;;;;;22.64;37.29;100550.06;15857640;28;20044;-62
2021/05/26 13:10:16;;;;;;;1999.90;999.90;;;;;;;20.46;41.99;100530.25;15856869;28;20071;-61
2021/05/26 13:17:48;;;;;;;1999.90;999.90;;;;;;;19.11;46.77;100539.13;15856398;28;20059;-62
2021/05/26 13:25:21;;;;;;;1999.90;999.90;;;;;;;18.97;48.06;100531.38;15856751;28;20463;-62
2021/05/26 13:32:54;;;;;;;1999.90;999.90;;;;;;;19.12;47.35;100535.09;15855062;28;20521;-62
2021/05/26 13:40:26;;;;;;;1999.90;999.90;;;;;;;19.21;47.63;100527.06;15873535;28;20051;-62
2021/05/26 13:47:59;;;;;;;1999.90;999.90;;;;;;;19.26;46.84;100521.00;15872836;28;20054;-63
2021/05/26 13:55:32;;;;;;;1999.90;999.90;;;;;;;19.69;47.87;100514.72;15873375;28;20036;-63
2021/05/26 14:03:05;;;;;;;1999.90;999.90;;;;;;;18.71;48.58;100514.63;15854307;28;20085;-63
2021/05/26 14:10:36;;;;;;;1999.90;999.90;;;;;;;19.24;46.64;100497.16;15853857;28;20059;-62
2021/05/26 14:18:09;;;;;;;1999.90;999.90;;;;;;;18.78;48.15;100494.09;15853865;28;20518;-62
2021/05/26 14:25:41;;;;;;;1999.90;999.90;;;;;;;18.75;46.59;100487.19;15852877;28;20071;-63
2021/05/26 14:33:13;;;;;;;1999.90;999.90;;;;;;;19.72;43.26;100472.31;15870756;28;20046;-62
2021/05/26 14:40:45;;;;;;;1999.90;999.90;;;;;;;19.94;43.28;100464.66;15850651;28;20071;-65
2021/05/26 14:48:17;;;;;;;1999.90;999.90;;;;;;;19.02;45.62;100462.31;15834614;28;20044;-62
2021/05/26 14:55:49;;;;;;;1999.90;999.90;;;;;;;18.98;45.63;100456.66;15851215;28;20051;-61
2021/05/26 15:03:21;;;;;;;1999.90;999.90;;;;;;;18.69;45.13;100458.50;15850620;28;20077;-62
2021/05/26 15:10:54;;;;;;;1999.90;999.90;;;;;;;18.36;46.10;100462.31;15867735;28;20415;-63
2021/05/26 15:18:27;;;;;;;1999.90;999.90;;;;;;;18.32;45.36;100469.91;15867701;28;20047;-63
2021/05/26 15:26:00;;;;;;;1999.90;999.90;;;;;;;17.96;46.39;100459.53;15849722;28;20469;-63
2021/05/26 15:33:33;;;;;;;1999.90;999.90;;;;;;;18.25;46.39;100464.22;15848762;28;20074;-62
2021/05/26 15:41:05;;;;;;;1999.90;999.90;;;;;;;18.72;46.23;100459.72;15847910;28;20553;-63
2021/05/26 15:48:37;;;;;;;1999.90;999.90;;;;;;;18.42;46.36;100440.13;15866512;28;20047;-61
2021/05/26 15:56:10;;;;;;;1999.90;999.90;;;;;;;18.50;46.24;100444.63;15848920;28;20083;-62
2021/05/26 16:03:42;;;;;;;1999.90;999.90;;;;;;;18.66;45.37;100444.38;15865879;28;20057;-63
2021/05/26 16:11:15;;;;;;;1999.90;999.90;;;;;;;18.04;46.01;100442.28;15846462;28;20054;-63
2021/05/26 16:18:47;;;;;;;1999.90;999.90;;;;;;;18.04;47.08;100433.00;15830304;28;20054;-62
2021/05/26 16:26:21;;;;;;;1999.90;999.90;;;;;;;17.66;46.49;100420.94;15864503;28;20519;-63
2021/05/26 16:33:56;;;;;;;1999.90;999.90;;;;;;;17.48;47.80;100415.09;15846711;28;20051;-62
2021/05/26 16:41:29;;;;;;;1999.90;999.90;;;;;;;18.08;47.10;100419.72;15847339;28;20035;-63
2021/05/26 16:49:02;;;;;;;1999.90;999.90;;;;;;;17.51;50.06;100417.16;15845687;28;20044;-61
2021/05/26 16:56:37;;;;;;;1999.90;999.90;;;;;;;17.64;50.30;100426.16;15863759;28;20581;-60
2021/05/26 17:04:10;;;;;;;1999.90;999.90;;;;;;;17.65;50.41;100413.66;15864524;28;20105;-63
2021/05/26 17:11:45;;;;;;;1999.90;999.90;;;;;;;17.79;50.27;100415.81;15856242;28;20100;-63
2021/05/26 17:19:18;;;;;;;1999.90;999.90;;;;;;;17.82;50.71;100421.53;15856194;28;20040;-62
2021/05/26 17:26:49;;;;;;;1999.90;999.90;;;;;;;17.23;52.83;100423.31;15874271;28;20131;-63
2021/05/26 17:34:22;;;;;;;1999.90;999.90;;;;;;;17.01;53.18;100435.53;15857381;28;20079;-61
2021/05/26 17:41:54;;;;;;;1999.90;999.90;;;;;;;16.97;53.22;100421.34;15858024;28;20046;-61
2021/05/26 17:49:27;;;;;;;1999.90;999.90;;;;;;;17.16;53.83;100413.94;15857037;28;20044;-61
2021/05/26 17:57:01;;;;;;;1999.90;999.90;;;;;;;16.81;53.96;100415.13;15871597;28;20047;-62
2021/05/26 18:04:33;;;;;;;1999.90;999.90;;;;;;;16.49;54.46;100417.47;15864719;28;20074;-62
2021/05/26 18:12:05;;;;;;;1999.90;999.90;;;;;;;16.66;55.12;100408.44;15871691;28;20044;-63
2021/05/26 18:19:42;;;;;;;1999.90;999.90;;;;;;;16.36;55.68;100414.09;15871053;28;20053;-63
2021/05/26 18:27:13;;;;;;;1999.90;999.90;;;;;;;16.44;56.19;100418.59;15853449;28;20039;-64
2021/05/26 18:34:46;;;;;;;1999.90;999.90;;;;;;;16.43;56.76;100418.97;15871247;28;20044;-64
2021/05/26 18:42:17;;;;;;;1999.90;999.90;;;;;;;15.98;58.01;100415.09;15872077;28;20040;-65
2021/05/26 18:49:52;;;;;;;1999.90;999.90;;;;;;;16.20;57.67;100413.41;15869126;28;20593;-63
2021/05/26 18:57:23;;;;;;;1999.90;999.90;;;;;;;15.84;58.30;100417.66;15850758;28;20034;-64
2021/05/26 19:04:56;;;;;;;1999.90;999.90;;;;;;;15.92;58.08;100408.13;15868731;28;20043;-63
2021/05/26 19:12:28;;;;;;;1999.90;999.90;;;;;;;15.74;58.73;100423.91;15868000;28;20043;-63
2021/05/26 19:20:01;;;;;;;1999.90;999.90;;;;;;;15.61;59.43;100430.91;15832488;28;20040;-64
2021/05/26 19:27:32;;;;;;;1999.90;999.90;;;;;;;15.73;59.03;100430.72;15866491;28;20047;-63
2021/05/26 19:35:06;;;;;;;1999.90;999.90;;;;;;;15.51;59.67;100435.91;15866557;28;20043;-64
2021/05/26 19:42:38;;;;;;;1999.90;999.90;;;;;;;15.44;59.32;100451.84;15866445;28;20085;-63
2021/05/26 19:50:16;;;;;;;1999.90;999.90;;;;;;;15.44;59.71;100451.84;15830411;28;20051;-61
2021/05/26 19:57:48;;;;;;;1999.90;999.90;;;;;;;15.01;61.50;100451.81;15847987;28;20040;-62
2021/05/26 20:05:20;;;;;;;1999.90;999.90;;;;;;;14.73;62.55;100468.03;15865966;28;20043;-62
2021/05/26 20:12:52;;;;;;;1999.90;999.90;;;;;;;14.77;62.73;100468.13;15864880;28;20053;-62
2021/05/26 20:20:25;;;;;;;1999.90;999.90;;;;;;;14.69;63.15;100465.16;15846889;28;20100;-62
2021/05/26 20:27:56;;;;;;;1999.90;999.90;;;;;;;14.90;62.84;100472.41;15846676;28;20047;-63
2021/05/26 20:35:29;;;;;;;1999.90;999.90;;;;;;;14.84;63.33;100477.53;15864951;28;20051;-64
2021/05/26 20:43:00;;;;;;;1999.90;999.90;;;;;;;14.71;63.31;100478.84;15871804;28;20408;-63
2021/05/26 20:50:33;;;;;;;1999.90;999.90;;;;;;;14.71;63.05;100481.66;15876215;28;20052;-63
2021/05/26 20:58:05;;;;;;;1999.90;999.90;;;;;;;14.59;63.14;100490.16;15857826;28;20485;-63
2021/05/26 21:05:37;;;;;;;1999.90;999.90;;;;;;;14.32;63.66;100486.31;15857774;28;20492;-64
2021/05/26 21:13:10;;;;;;;1999.90;999.90;;;;;;;14.60;63.09;100497.44;15839986;28;20039;-64
2021/05/26 21:20:42;;;;;;;1999.90;999.90;;;;;;;14.39;63.32;100512.56;15876319;28;20050;-63
2021/05/26 21:28:15;;;;;;;1999.90;999.90;;;;;;;14.34;63.99;100501.59;15876349;28;20044;-63
2021/05/26 21:35:49;;;;;;;1999.90;999.90;;;;;;;14.19;64.03;100507.22;15875847;28;20052;-62
2021/05/26 21:43:20;;;;;;;1999.90;999.90;;;;;;;14.25;63.59;100506.56;15874420;28;20081;-64
2021/05/26 21:50:53;;;;;;;1999.90;999.90;;;;;;;14.29;63.80;100512.28;15873579;28;20050;-64
2021/05/26 21:58:26;;;;;;;1999.90;999.90;;;;;;;14.29;63.17;100521.53;15872614;28;20450;-62
2021/05/26 22:05:58;;;;;;;1999.90;999.90;;;;;;;14.34;63.33;100518.44;15853943;28;20082;-64
2021/05/26 22:13:31;;;;;;;1999.90;999.90;;;;;;;14.41;63.48;100518.63;15853866;28;20048;-63
2021/05/26 22:21:04;;;;;;;1999.90;999.90;;;;;;;14.41;63.74;100524.22;15871615;28;20495;-64
2021/05/26 22:28:35;;;;;;;1999.90;999.90;;;;;;;14.21;63.90;100528.13;15870831;28;20328;-62
2021/05/26 22:36:08;;;;;;;1999.90;999.90;;;;;;;14.06;65.55;100526.13;15852108;28;20093;-62
2021/05/26 22:43:41;;;;;;;1999.90;999.90;;;;;;;14.08;66.64;100524.59;15870231;28;20043;-63
2021/05/26 22:51:14;;;;;;;1999.90;999.90;;;;;;;13.89;68.56;100524.50;15869537;28;20126;-64
2021/05/26 22:58:45;;;;;;;1999.90;999.90;;;;;;;13.83;67.89;100532.34;15851135;28;20297;-64
2021/05/26 23:06:18;;;;;;;1999.90;999.90;;;;;;;13.60;67.41;100531.31;15866971;28;20043;-62
2021/05/26 23:13:49;;;;;;;1999.90;999.90;;;;;;;13.56;67.48;100527.59;15847956;28;20043;-61
2021/05/26 23:21:22;;;;;;;1999.90;999.90;;;;;;;13.71;66.73;100526.00;15867915;28;20054;-62
2021/05/26 23:28:53;;;;;;;1999.90;999.90;;;;;;;13.51;66.98;100537.06;15849114;28;20035;-62
2021/05/26 23:36:26;;;;;;;1999.90;999.90;;;;;;;13.37;67.04;100533.06;15867223;28;20067;-63
2021/05/26 23:43:58;;;;;;;1999.90;999.90;;;;;;;13.16;66.34;100542.44;15847595;28;20096;-62
2021/05/26 23:51:30;;;;;;;1999.90;999.90;;;;;;;12.97;66.29;100539.44;15865818;28;20043;-62
2021/05/26 23:59:02;;;;;;;1999.90;999.90;;;;;;;12.76;65.92;100539.59;15865718;28;20059;-62
